Archival Weather

Chicago O'Hare International

Chicago, Illinois (KORD)

Report from: Sunday, March 19, 2023 10:51 PM CDT
Current time: Friday, June 21, 2024 6:13 PM CDT

Current weather – Weather history – Daily summaries
Weather forecast

Temperature0.6°C (33.1°F)
Wind chill-5.4°C (22.2°F)
Dew point-9.4°C (15.1°F)
Winds 15 kts (7.7 m/s, 17.3 mph) Southwest (230°)
Wind gusts 22 kts (11.3 m/s, 25.3 mph)
Visibility10 mi. (16.1 km)
Clouds Few clouds 25,000 ft. (7,620 m)
Altimeter30.17 in.Hg (1022 mB)
Relative humidity47 %
Density altitude-2,017 ft. (-615 m)
Sea-level pressure102.2 kPa (1022 mB, 30.19 in.Hg)
Remarks System requires maintenance
Automated weather observing station with precipitation discriminator
Flight conditions Visual Meteorological Conditions
Raw dataKORD 200351Z 23015G22KT 10SM FEW250 01/M09 A3017 RMK AO2 SLP224 T00061094 $
An error has occurred. This application may no longer respond until reloaded. Reload 🗙